»·PEaware :: WAT169 KSNA-KSBA

WAT169 :: KSNA-KSBA

FLIGHT INFORMATION

Flight Status: Arrived
Operator:
Walker Air Transport
More flights by this operator :: More flights under this callsign
Pilot: Marty P. (27464)
Aircraft: BEECH AIRCRAFT BARON
(BE58)
More flights by this aircraft type
Origin: KSNA John Wayne-Orange Co
United States
Destination: KSBA Santa Barbara Mun
United States
More flights between these airports :: More routes between these airports
Route: SLI V23 LAX V299 VTU VTU282 KWANG
File this flight plan on PilotEdge
Remarks:
Altitude:
(Current/Filed)
6,000ft
Speed:
(Current/Filed)
0kts
Departed: 20-Feb-21 10:43 AM
Arrived: 20-Feb-21 11:24 AM
Distance/Time
Traveled:
108nm/0:41
Distance/Time
To Go:
Arrived

Flight Plot

Page will automatically refresh every two minutes.


Map Options




Map Legend


Flown Route
Filed Route
Departure Airport
Arrival Airport
Navaid (VOR, NDB)
Fix

Horizontal Profiles

Position Reports

Time Latitude Longitude Heading Altitude Ground
Speed
20-Feb-21 10:31 33.667178 -117.872126 225 57ft 0kts
20-Feb-21 10:32 33.667178 -117.872126 225 57ft 0kts
20-Feb-21 10:33 33.668638 -117.871419 41 57ft 12kts
20-Feb-21 10:34 33.671752 -117.868355 29 57ft 13kts
20-Feb-21 10:35 33.673325 -117.867674 218 57ft 9kts
20-Feb-21 10:36 33.673285 -117.867947 35 57ft 0kts
20-Feb-21 10:37 33.673285 -117.867947 35 57ft 0kts
20-Feb-21 10:38 33.673332 -117.867897 47 57ft 3kts
20-Feb-21 10:39 33.675932 -117.865925 27 57ft 18kts
20-Feb-21 10:40 33.679793 -117.863486 12 57ft 9kts
20-Feb-21 10:41 33.679989 -117.863675 297 57ft 0kts
20-Feb-21 10:42 33.675546 -117.867059 206 57ft 93kts
20-Feb-21 10:43 33.651897 -117.890971 233 1438ft 121kts
20-Feb-21 10:44 33.628295 -117.928546 233 2007ft 168kts
20-Feb-21 10:45 33.600861 -117.972141 233 2010ft 155kts
20-Feb-21 10:46 33.575243 -118.012492 233 2013ft 150kts
20-Feb-21 10:47 33.580390 -118.053136 317 3208ft 130kts
20-Feb-21 10:48 33.605575 -118.080379 318 4784ft 111kts
20-Feb-21 10:49 33.627781 -118.104164 318 6075ft 121kts
20-Feb-21 10:50 33.660307 -118.138838 318 6022ft 178kts
20-Feb-21 10:51 33.699358 -118.180673 318 6016ft 193kts
20-Feb-21 10:52 33.739846 -118.224067 318 6013ft 195kts
20-Feb-21 10:53 33.780424 -118.267605 318 6010ft 196kts
20-Feb-21 10:54 33.821154 -118.311395 318 6007ft 196kts
20-Feb-21 10:55 33.861796 -118.355119 318 6008ft 195kts
20-Feb-21 10:56 33.902221 -118.398665 318 6008ft 194kts
20-Feb-21 10:57 33.936896 -118.447598 296 6006ft 195kts
20-Feb-21 10:58 33.957365 -118.508192 293 6005ft 195kts
20-Feb-21 10:59 33.976945 -118.569286 293 6007ft 194kts
20-Feb-21 11:00 33.996267 -118.629989 293 6005ft 194kts
20-Feb-21 11:01 34.015667 -118.691054 293 5987ft 195kts
20-Feb-21 11:02 34.034922 -118.751829 293 5984ft 194kts
20-Feb-21 11:03 34.052132 -118.813748 291 5982ft 193kts
20-Feb-21 11:04 34.068593 -118.875226 291 5982ft 192kts
20-Feb-21 11:05 34.085025 -118.936692 292 5983ft 191kts
20-Feb-21 11:06 34.101309 -118.997832 292 5987ft 191kts
20-Feb-21 11:07 34.119168 -119.058093 299 5991ft 189kts
20-Feb-21 11:08 34.142497 -119.114733 301 5988ft 187kts
20-Feb-21 11:09 34.165955 -119.170780 301 5985ft 186kts
20-Feb-21 11:10 34.188884 -119.225536 301 5556ft 183kts
20-Feb-21 11:11 34.211443 -119.279545 302 4907ft 178kts
20-Feb-21 11:12 34.233428 -119.332262 302 4119ft 171kts
20-Feb-21 11:13 34.254611 -119.382990 302 3987ft 174kts
20-Feb-21 11:14 34.277051 -119.436906 302 3986ft 181kts
20-Feb-21 11:15 34.299736 -119.491585 302 3998ft 182kts
20-Feb-21 11:16 34.320986 -119.547229 300 4040ft 182kts
20-Feb-21 11:17 34.338023 -119.604727 284 4042ft 189kts
20-Feb-21 11:18 34.341685 -119.669369 281 3399ft 186kts
20-Feb-21 11:19 34.347307 -119.729647 290 2711ft 174kts
20-Feb-21 11:20 34.357426 -119.783897 289 1817ft 146kts
20-Feb-21 11:21 34.378536 -119.815290 324 765ft 107kts
20-Feb-21 11:22 34.403023 -119.831779 342 429ft 89kts
20-Feb-21 11:23 34.424378 -119.838387 351 11ft 26kts
20-Feb-21 11:24 34.427673 -119.838654 345 10ft 22kts
20-Feb-21 11:25 34.431623 -119.836702 70 11ft 25kts
20-Feb-21 11:26 34.432896 -119.835942 254 11ft 4kts

Navigation Log

Ident Type
Flight plan parsing failed, navigation log unavailable